Humboldt, South Dakota
Current Conditions -  °F | °C
As of 12:56 PM on Thursday 23 Oct 2014 (Local Time) from KFSD Reporting Station
Few Clouds Few Clouds  
Wind Chill: 65°   Ceiling: Unl
Heat Index: 65°   Visibility: 10mi
Dew Point: 48°   Wind: 6mph
Humidity: 54%   Direction: 220°SW
Pressure: 30.02"   Gusts: NA
Location:  43.65°N, 97.07°W
Report Text: KFSD 231756Z 22005KT 10SM FEW250 18/09 A3002 RMK AO2 SLP165 T01830089 10183 20044 58007
Loading
Personal Weather Stations






























Interactive Weather Map
Tropical Storm Tracking
New forecast layout! Learn more

10-Day Weather Forecast

Advertisements
Track Severe Weather on mobile